createdAt,value
2022-11-05T00:00:16.348Z,97098.06
2022-11-05T00:02:36.187Z,97103.97
2022-11-05T00:04:56.001Z,97107.53
2022-11-05T00:07:15.874Z,97105.91
2022-11-05T00:09:32.737Z,97111.94
2022-11-05T00:11:52.856Z,97119.66
2022-11-05T00:14:13.072Z,97119.66
2022-11-05T00:16:40.498Z,97125.66
2022-11-05T00:18:41.831Z,97130.78
2022-11-05T00:20:43.476Z,97121.34
2022-11-05T00:23:03.542Z,97127.28
2022-11-05T00:25:17.094Z,97134.13
2022-11-05T00:27:18.392Z,97133.28
2022-11-05T00:29:19.713Z,97136.72
2022-11-05T00:31:21.030Z,97135.09
2022-11-05T00:33:22.373Z,97139.38
2022-11-05T00:35:23.730Z,97139.38
2022-11-05T00:37:25.013Z,97141.09
2022-11-05T00:39:26.293Z,97144.47
2022-11-05T00:41:27.610Z,97146.28
2022-11-05T00:43:47.724Z,97136.03
2022-11-05T00:45:49.040Z,97140.25
2022-11-05T00:48:08.867Z,97147.03
2022-11-05T00:50:10.823Z,97144.47
2022-11-05T00:52:31.092Z,97144.47
2022-11-05T00:54:32.389Z,97146.97
2022-11-05T00:56:33.676Z,97148.56
2022-11-05T00:58:34.960Z,97151.91
2022-11-05T01:00:36.219Z,97157.78
2022-11-05T01:02:37.580Z,97154.31
2022-11-05T01:04:38.957Z,97151.84
2022-11-05T01:06:40.224Z,97147.56
2022-11-05T01:08:41.521Z,97154.31
2022-11-05T01:10:43.028Z,97155.22
2022-11-05T01:12:44.290Z,97154.31
2022-11-05T01:14:45.580Z,97154.31
2022-11-05T01:16:46.905Z,97148.41
2022-11-05T01:18:48.181Z,97159.44
2022-11-05T01:20:49.452Z,97156.13
2022-11-05T01:22:50.748Z,97165.59
2022-11-05T01:24:52.052Z,97157.03
2022-11-05T01:26:53.321Z,97172.41
2022-11-05T01:28:54.872Z,97168.13
2022-11-05T01:30:56.390Z,97169.97
2022-11-05T01:32:57.962Z,97183.59
2022-11-05T01:34:59.300Z,97180.28
2022-11-05T01:37:00.617Z,97185.41
2022-11-05T01:39:01.992Z,97183.72
2022-11-05T01:41:03.250Z,97190.50
2022-11-05T01:43:04.613Z,97191.50
2022-11-05T01:45:05.914Z,97192.47
2022-11-05T01:47:07.280Z,97198.53
2022-11-05T01:49:08.554Z,97202.03
2022-11-05T01:51:09.905Z,97201.09
2022-11-05T01:53:11.531Z,97199.47
2022-11-05T01:55:12.980Z,97203.75
2022-11-05T01:57:14.743Z,97202.88
2022-11-05T01:59:16.017Z,97205.50
2022-11-05T02:01:17.337Z,97203.75
2022-11-05T02:03:18.665Z,97211.41
2022-11-05T02:05:19.950Z,97215.72
2022-11-05T02:07:21.208Z,97213.16
2022-11-05T02:09:22.519Z,97210.63
2022-11-05T02:11:23.784Z,97218.28
2022-11-05T02:13:25.071Z,97213.16
2022-11-05T02:15:26.357Z,97219.94
2022-11-05T02:17:27.621Z,97213.97
2022-11-05T02:19:28.920Z,97225.00
2022-11-05T02:21:30.189Z,97218.97
2022-11-05T02:23:31.473Z,97216.38
2022-11-05T02:25:32.748Z,97217.19
2022-11-05T02:27:34.045Z,97221.50
2022-11-05T02:29:35.294Z,97218.97
2022-11-05T02:31:36.988Z,97218.94
2022-11-05T02:33:38.262Z,97216.44
2022-11-05T02:35:39.528Z,97218.97
2022-11-05T02:37:40.908Z,97219.81
2022-11-05T02:39:42.172Z,97213.03
2022-11-05T02:41:43.471Z,97227.56
2022-11-05T02:43:44.799Z,97227.59
2022-11-05T02:45:46.075Z,97220.84
2022-11-05T02:47:47.992Z,97228.53
2022-11-05T02:49:49.313Z,97223.41
2022-11-05T02:51:50.568Z,97225.13
2022-11-05T02:53:51.854Z,97227.56
2022-11-05T02:55:53.161Z,97234.44
2022-11-05T02:57:54.466Z,97231.06
2022-11-05T02:59:55.748Z,97235.34
2022-11-05T03:01:57.151Z,97109.66
2022-11-05T03:03:58.575Z,97242.94
2022-11-05T03:05:59.844Z,97241.13
2022-11-05T03:08:01.136Z,97241.94
2022-11-05T03:10:02.549Z,97246.22
2022-11-05T03:12:03.912Z,97247.09
2022-11-05T03:14:05.179Z,97256.50
2022-11-05T03:16:06.448Z,97257.34
2022-11-05T03:18:07.745Z,97266.72
2022-11-05T03:20:09.021Z,97271.63
2022-11-05T03:22:10.509Z,97268.75
2022-11-05T03:24:11.792Z,97272.13
2022-11-05T03:26:13.065Z,97273.00
2022-11-05T03:28:14.365Z,97268.75
2022-11-05T03:30:15.653Z,97273.94
2022-11-05T03:32:16.997Z,97282.47
2022-11-05T03:34:18.328Z,97291.84
2022-11-05T03:36:19.581Z,97287.56
2022-11-05T03:38:20.917Z,97283.31
2022-11-05T03:40:22.189Z,97283.31
2022-11-05T03:42:23.489Z,97285.78
2022-11-05T03:44:24.832Z,97284.06
2022-11-05T03:46:26.157Z,97290.03
2022-11-05T03:48:27.510Z,97291.66
2022-11-05T03:50:28.813Z,97295.91
2022-11-05T03:52:30.083Z,97290.91
2022-11-05T03:54:32.086Z,97300.38
2022-11-05T03:56:33.357Z,97304.69
2022-11-05T03:58:34.639Z,97307.31
2022-11-05T04:00:35.904Z,97316.59
2022-11-05T04:02:37.339Z,97327.69
2022-11-05T04:04:38.772Z,97334.50
2022-11-05T04:06:59.033Z,97328.50
2022-11-05T04:09:18.955Z,97338.19
2022-11-05T04:11:38.902Z,97339.94
2022-11-05T04:13:40.208Z,97349.34
2022-11-05T04:16:00.005Z,97356.91
2022-11-05T04:18:01.331Z,97355.97
2022-11-05T04:20:22.858Z,97344.06
2022-11-05T04:22:42.852Z,97349.06
2022-11-05T04:24:44.117Z,97349.06
2022-11-05T04:26:45.446Z,97363.56
2022-11-05T04:29:07.961Z,97355.13
2022-11-05T04:31:09.434Z,97356.91
2022-11-05T04:33:11.150Z,97356.94
2022-11-05T04:35:12.748Z,97367.19
2022-11-05T04:37:14.057Z,97360.38
2022-11-05T04:39:15.324Z,97357.91
2022-11-05T04:41:16.661Z,97366.31
2022-11-05T04:43:18.544Z,97380.69
2022-11-05T04:45:20.216Z,97378.06
2022-11-05T04:47:21.543Z,97372.97
2022-11-05T04:49:22.829Z,97379.75
2022-11-05T04:51:24.102Z,97382.31
2022-11-05T04:53:25.422Z,97382.31
2022-11-05T04:55:26.908Z,97388.16
2022-11-05T04:57:28.184Z,97388.97
2022-11-05T04:59:29.529Z,97400.16
2022-11-05T05:01:30.953Z,97401.81
2022-11-05T05:03:32.312Z,97406.97
2022-11-05T05:05:33.625Z,97395.97
2022-11-05T05:07:34.902Z,97403.66
2022-11-05T05:09:36.182Z,97408.84
2022-11-05T05:11:37.498Z,97404.59
2022-11-05T05:13:38.828Z,97412.34
2022-11-05T05:15:40.356Z,97414.88
2022-11-05T05:17:41.766Z,97421.75
2022-11-05T05:20:01.645Z,97421.75
2022-11-05T05:22:02.933Z,97420.09
2022-11-05T05:24:04.228Z,97426.94
2022-11-05T05:26:05.511Z,97424.31
2022-11-05T05:28:06.787Z,97431.94
2022-11-05T05:30:08.047Z,97426.94
2022-11-05T05:32:09.333Z,97430.94
2022-11-05T05:34:10.636Z,97429.22
2022-11-05T05:36:11.896Z,97438.56
2022-11-05T05:38:13.177Z,97439.41
2022-11-05T05:40:14.497Z,97436.91
2022-11-05T05:42:15.764Z,97444.47
2022-11-05T05:44:17.192Z,97436.84
2022-11-05T05:46:18.512Z,97437.81
2022-11-05T05:48:19.864Z,97436.84
2022-11-05T05:50:21.185Z,97436.00
2022-11-05T05:52:22.450Z,97441.16
2022-11-05T05:54:27.696Z,97311.16
2022-11-05T05:56:33.104Z,97437.94
2022-11-05T05:58:34.429Z,97444.00
2022-11-05T06:00:35.773Z,97442.34
2022-11-05T06:02:37.184Z,97450.09
2022-11-05T06:04:38.519Z,97446.56
2022-11-05T06:06:39.800Z,97451.34
2022-11-05T06:08:41.131Z,97452.13
2022-11-05T06:10:42.488Z,97465.69
2022-11-05T06:12:43.915Z,97465.69
2022-11-05T06:14:45.210Z,97468.13
2022-11-05T06:16:46.516Z,97456.13
2022-11-05T06:18:48.224Z,97462.91
2022-11-05T06:20:49.507Z,97466.31
2022-11-05T06:22:50.766Z,97462.94
2022-11-05T06:24:52.097Z,97468.03
2022-11-05T06:26:53.372Z,97468.03
2022-11-05T06:28:54.820Z,97466.38
2022-11-05T06:30:56.101Z,97469.00
2022-11-05T06:32:57.377Z,97470.72
2022-11-05T06:34:58.692Z,97474.19
2022-11-05T06:37:00.005Z,97476.72
2022-11-05T06:39:01.293Z,97477.59
2022-11-05T06:41:07.222Z,97480.16
2022-11-05T06:43:11.495Z,97487.84
2022-11-05T06:45:12.992Z,97497.22
2022-11-05T06:47:14.280Z,97508.41
2022-11-05T06:49:15.597Z,97514.41
2022-11-05T06:51:16.860Z,97522.03
2022-11-05T06:53:18.200Z,97514.25
2022-11-05T06:55:19.469Z,97528.66
2022-11-05T06:57:20.774Z,97538.94
2022-11-05T06:59:22.245Z,97540.72
2022-11-05T07:01:23.645Z,97540.78
2022-11-05T07:03:25.023Z,97543.34
2022-11-05T07:05:26.315Z,97550.16
2022-11-05T07:07:27.639Z,97549.50
2022-11-05T07:09:29.127Z,97557.28
2022-11-05T07:11:30.477Z,97559.16
2022-11-05T07:13:31.777Z,97555.91
2022-11-05T07:15:33.084Z,97562.69
2022-11-05T07:17:34.405Z,97560.03
2022-11-05T07:19:36.294Z,97568.59
2022-11-05T07:21:37.645Z,97572.25
2022-11-05T07:23:38.969Z,97576.66
2022-11-05T07:25:40.285Z,97572.50
2022-11-05T07:27:41.644Z,97572.44
2022-11-05T07:29:42.918Z,97583.03
2022-11-05T07:31:44.235Z,97576.44
2022-11-05T07:33:45.528Z,97582.38
2022-11-05T07:35:47.010Z,97588.13
2022-11-05T07:37:48.300Z,97594.69
2022-11-05T07:39:52.635Z,97591.75
2022-11-05T07:41:57.804Z,97594.22
2022-11-05T07:43:59.129Z,97603.63
2022-11-05T07:46:00.485Z,97605.22
2022-11-05T07:48:02.307Z,97611.97
2022-11-05T07:50:03.593Z,97617.88
2022-11-05T07:52:04.873Z,97619.34
2022-11-05T07:54:06.214Z,97620.19
2022-11-05T07:56:08.306Z,97627.81
2022-11-05T07:58:09.573Z,97626.97
2022-11-05T08:00:11.149Z,97628.81
2022-11-05T08:02:18.811Z,97632.09
2022-11-05T08:04:26.164Z,97633.78
2022-11-05T08:06:27.443Z,97642.19
2022-11-05T08:08:28.767Z,97649.91
2022-11-05T08:10:30.045Z,97650.09
2022-11-05T08:12:31.346Z,97653.56
2022-11-05T08:14:32.844Z,97657.75
2022-11-05T08:16:34.123Z,97651.78
2022-11-05T08:18:35.921Z,97653.28
2022-11-05T08:20:38.443Z,97645.34
2022-11-05T08:22:39.725Z,97663.69
2022-11-05T08:24:41.004Z,97664.84
2022-11-05T08:26:45.501Z,97671.22
2022-11-05T08:28:46.765Z,97668.94
2022-11-05T08:30:48.033Z,97668.31
2022-11-05T08:32:49.323Z,97681.25
2022-11-05T08:34:50.780Z,97684.66
2022-11-05T08:36:52.073Z,97688.16
2022-11-05T08:38:53.332Z,97681.50
2022-11-05T08:40:55.021Z,97686.69
2022-11-05T08:42:56.298Z,97685.88
2022-11-05T08:44:57.590Z,97691.97
2022-11-05T08:46:58.928Z,97696.41
2022-11-05T08:49:00.190Z,97693.06
2022-11-05T08:51:01.908Z,97699.91
2022-11-05T08:53:03.191Z,97701.66
2022-11-05T08:55:04.459Z,97702.53
2022-11-05T08:57:06.370Z,97703.38
2022-11-05T08:59:07.704Z,97700.84
2022-11-05T09:01:09.128Z,97706.88
2022-11-05T09:03:10.854Z,97717.09
2022-11-05T09:05:12.516Z,97717.09
2022-11-05T09:07:14.060Z,97717.06
2022-11-05T09:09:15.321Z,97713.63
2022-11-05T09:11:18.038Z,97716.88
2022-11-05T09:13:20.467Z,97718.31
2022-11-05T09:15:23.218Z,97724.94
2022-11-05T09:17:24.711Z,97714.50
2022-11-05T09:19:26.000Z,97726.34
2022-11-05T09:21:27.314Z,97728.84
2022-11-05T09:23:28.584Z,97730.63
2022-11-05T09:25:30.400Z,97728.66
2022-11-05T09:27:31.888Z,97734.81
2022-11-05T09:29:33.217Z,97730.38
2022-11-05T09:31:34.544Z,97731.69
2022-11-05T09:33:35.896Z,97726.97
2022-11-05T09:35:37.181Z,97730.59
2022-11-05T09:37:38.485Z,97733.50
2022-11-05T09:39:40.072Z,97742.78
2022-11-05T09:41:43.430Z,97739.56
2022-11-05T09:43:44.733Z,97734.63
2022-11-05T09:45:46.008Z,97744.28
2022-11-05T09:47:47.320Z,97740.25
2022-11-05T09:49:50.056Z,97733.94
2022-11-05T09:51:51.354Z,97733.66
2022-11-05T09:53:53.832Z,97745.16
2022-11-05T09:55:55.167Z,97742.72
2022-11-05T09:57:56.443Z,97744.94
2022-11-05T09:59:57.752Z,97737.47
2022-11-05T10:01:59.188Z,97745.66
2022-11-05T10:04:00.584Z,97744.97
2022-11-05T10:06:01.869Z,97739.84
2022-11-05T10:08:06.021Z,97748.06
2022-11-05T10:10:07.329Z,97737.97
2022-11-05T10:12:08.660Z,97751.94
2022-11-05T10:14:10.035Z,97748.03
2022-11-05T10:16:11.320Z,97750.16
2022-11-05T10:18:12.587Z,97753.03
2022-11-05T10:20:13.869Z,97754.09
2022-11-05T10:22:16.414Z,97758.34
2022-11-05T10:24:17.696Z,97761.00
2022-11-05T10:26:19.197Z,97762.50
2022-11-05T10:28:20.505Z,97761.22
2022-11-05T10:30:21.899Z,97757.88
2022-11-05T10:32:23.244Z,97763.75
2022-11-05T10:34:24.497Z,97765.13
2022-11-05T10:36:28.815Z,97774.25
2022-11-05T10:38:30.131Z,97768.81
2022-11-05T10:40:31.443Z,97784.19
2022-11-05T10:42:32.716Z,97781.91
2022-11-05T10:44:34.070Z,97781.94
2022-11-05T10:46:35.377Z,97786.75
2022-11-05T10:48:40.784Z,97789.50
2022-11-05T10:50:44.855Z,97786.53
2022-11-05T10:52:46.169Z,97780.06
2022-11-05T10:54:47.534Z,97779.03
2022-11-05T10:56:48.867Z,97781.94
2022-11-05T10:58:50.179Z,97773.25
2022-11-05T11:00:51.494Z,97788.13
2022-11-05T11:02:52.854Z,97788.91
2022-11-05T11:04:54.134Z,97781.28
2022-11-05T11:06:55.417Z,97777.63
2022-11-05T11:08:56.736Z,97780.16
2022-11-05T11:10:58.069Z,97775.59
2022-11-05T11:12:59.457Z,97784.00
2022-11-05T11:15:00.767Z,97782.63
2022-11-05T11:17:02.115Z,97786.09
2022-11-05T11:19:03.512Z,97779.78
2022-11-05T11:21:04.828Z,97788.44
2022-11-05T11:23:06.168Z,97790.97
2022-11-05T11:25:07.431Z,97791.13
2022-11-05T11:27:08.736Z,97791.47
2022-11-05T11:29:10.064Z,97803.16
2022-11-05T11:31:11.390Z,97794.88
2022-11-05T11:33:12.954Z,97800.47
2022-11-05T11:35:14.518Z,97791.44
2022-11-05T11:37:19.443Z,97805.41
2022-11-05T11:39:21.004Z,97804.00
2022-11-05T11:41:25.089Z,97672.63
2022-11-05T11:43:26.371Z,97808.53
2022-11-05T11:45:27.701Z,97815.59
2022-11-05T11:47:29.823Z,97812.28
2022-11-05T11:49:31.101Z,97813.19
2022-11-05T11:51:32.542Z,97811.53
2022-11-05T11:53:34.080Z,97816.69
2022-11-05T11:55:35.359Z,97810.81
2022-11-05T11:57:36.625Z,97816.00
2022-11-05T12:00:07.283Z,97814.38
2022-11-05T12:01:59.352Z,97813.53
2022-11-05T12:04:00.668Z,97813.56
2022-11-05T12:06:01.945Z,97815.25
2022-11-05T12:08:03.265Z,97813.47
2022-11-05T12:10:04.541Z,97810.91
2022-11-05T12:12:05.822Z,97807.22
2022-11-05T12:14:07.317Z,97814.56
2022-11-05T12:16:08.602Z,97817.09
2022-11-05T12:18:12.860Z,97810.53
2022-11-05T12:20:14.244Z,97810.00
2022-11-05T12:22:15.953Z,97807.06
2022-11-05T12:24:17.496Z,97810.19
2022-11-05T12:26:18.791Z,97813.22
2022-11-05T12:28:20.109Z,97813.22
2022-11-05T12:30:21.605Z,97807.19
2022-11-05T12:32:25.865Z,97808.88
2022-11-05T12:34:27.214Z,97811.41
2022-11-05T12:36:28.513Z,97824.06
2022-11-05T12:38:29.865Z,97829.97
2022-11-05T12:40:31.144Z,97820.66
2022-11-05T12:42:32.409Z,97824.91
2022-11-05T12:44:33.733Z,97818.00
2022-11-05T12:46:35.064Z,97822.28
2022-11-05T12:48:37.401Z,97820.72
2022-11-05T12:50:38.779Z,97825.78
2022-11-05T12:52:40.078Z,97831.91
2022-11-05T12:54:41.926Z,97826.91
2022-11-05T12:56:43.210Z,97835.56
2022-11-05T12:58:44.556Z,97833.94
2022-11-05T13:00:45.833Z,97831.47
2022-11-05T13:02:47.114Z,97830.78
2022-11-05T13:04:48.392Z,97837.63
2022-11-05T13:06:49.680Z,97838.53
2022-11-05T13:08:50.988Z,97829.94
2022-11-05T13:10:52.329Z,97843.66
2022-11-05T13:12:53.645Z,97844.53
2022-11-05T13:14:54.945Z,97842.91
2022-11-05T13:16:56.501Z,97839.47
2022-11-05T13:18:57.818Z,97733.22
2022-11-05T13:20:59.271Z,97843.69
2022-11-05T13:23:00.856Z,97845.47
2022-11-05T13:25:02.170Z,97843.91
2022-11-05T13:27:03.510Z,97851.34
2022-11-05T13:29:04.989Z,97853.69
2022-11-05T13:31:06.295Z,97854.19
2022-11-05T13:33:07.641Z,97858.69
2022-11-05T13:35:08.971Z,97860.56
2022-11-05T13:37:28.860Z,97860.66
2022-11-05T13:39:30.213Z,97857.34
2022-11-05T13:41:31.489Z,97853.22
2022-11-05T13:43:32.815Z,97865.06
2022-11-05T13:45:34.122Z,97872.69
2022-11-05T13:47:35.412Z,97870.94
2022-11-05T13:49:36.685Z,97875.13
2022-11-05T13:51:39.524Z,97868.41
2022-11-05T13:53:42.618Z,97870.88
2022-11-05T13:55:47.431Z,97869.81
2022-11-05T13:57:48.710Z,97863.66
2022-11-05T13:59:50.021Z,97872.97
2022-11-05T14:01:51.481Z,97860.19
2022-11-05T14:03:52.892Z,97867.25
2022-11-05T14:05:54.399Z,97864.75
2022-11-05T14:07:55.703Z,97864.34
2022-11-05T14:09:57.026Z,97870.72
2022-11-05T14:11:58.363Z,97874.16
2022-11-05T14:13:59.646Z,97875.50
2022-11-05T14:16:00.915Z,97880.34
2022-11-05T14:18:02.233Z,97884.34
2022-11-05T14:20:04.544Z,97883.69
2022-11-05T14:22:05.817Z,97883.94
2022-11-05T14:24:07.120Z,97881.44
2022-11-05T14:26:08.399Z,97881.78
2022-11-05T14:28:09.710Z,97884.34
2022-11-05T14:30:11.024Z,97886.66
2022-11-05T14:32:12.316Z,97884.75
2022-11-05T14:34:13.597Z,97888.06
2022-11-05T14:36:17.568Z,97893.38
2022-11-05T14:38:18.888Z,97887.16
2022-11-05T14:40:20.833Z,97895.50
2022-11-05T14:42:22.161Z,97902.03
2022-11-05T14:44:23.453Z,97900.63
2022-11-05T14:46:24.753Z,97906.81
2022-11-05T14:48:26.049Z,97904.88
2022-11-05T14:50:30.439Z,97904.34
2022-11-05T14:52:31.739Z,97907.25
2022-11-05T14:54:36.093Z,97907.47
2022-11-05T14:56:37.411Z,97775.34
2022-11-05T14:58:38.771Z,97909.09
2022-11-05T15:00:40.808Z,97921.69
2022-11-05T15:02:42.217Z,97919.09
2022-11-05T15:04:45.603Z,97928.44
2022-11-05T15:06:46.991Z,97929.78
2022-11-05T15:08:48.276Z,97931.56
2022-11-05T15:10:49.543Z,97936.34
2022-11-05T15:12:50.858Z,97934.41
2022-11-05T15:14:52.145Z,97933.06
2022-11-05T15:16:53.490Z,97927.84
2022-11-05T15:18:54.762Z,97930.69
2022-11-05T15:20:56.034Z,97929.72
2022-11-05T15:22:57.365Z,97924.31
2022-11-05T15:24:58.830Z,97928.06
2022-11-05T15:27:00.200Z,97923.78
2022-11-05T15:29:01.775Z,97922.66
2022-11-05T15:31:03.255Z,97917.53
2022-11-05T15:33:04.588Z,97909.47
2022-11-05T15:35:05.857Z,97913.19
2022-11-05T15:37:07.128Z,97919.16
2022-11-05T15:39:28.433Z,97918.63
2022-11-05T15:41:34.607Z,97925.28
2022-11-05T15:43:36.003Z,97922.63
2022-11-05T15:45:37.325Z,97928.94
2022-11-05T15:47:38.592Z,97932.66
2022-11-05T15:49:40.029Z,97922.88
2022-11-05T15:51:41.325Z,97817.03
2022-11-05T15:54:01.897Z,97929.97
2022-11-05T15:56:03.836Z,97927.44
2022-11-05T15:58:05.104Z,97927.63
2022-11-05T16:00:06.408Z,97930.22
2022-11-05T16:02:07.754Z,97812.25
2022-11-05T16:04:09.882Z,97939.75
2022-11-05T16:06:11.227Z,97944.94
2022-11-05T16:08:12.506Z,97858.94
2022-11-05T16:10:13.816Z,97948.47
2022-11-05T16:12:15.144Z,97953.66
2022-11-05T16:14:17.006Z,97949.47
2022-11-05T16:16:18.280Z,97954.63
2022-11-05T16:18:19.592Z,97952.97
2022-11-05T16:20:20.879Z,97951.31
2022-11-05T16:22:22.157Z,97954.78
2022-11-05T16:24:29.084Z,97951.38
2022-11-05T16:27:00.501Z,97952.28
2022-11-05T16:28:52.013Z,97956.63
2022-11-05T16:30:53.411Z,97958.34
2022-11-05T16:32:54.689Z,97954.94
2022-11-05T16:34:55.957Z,97960.97
2022-11-05T16:36:57.358Z,97959.31
2022-11-05T16:38:58.638Z,97962.72
2022-11-05T16:41:00.460Z,97975.53
2022-11-05T16:43:01.734Z,97976.38
2022-11-05T16:45:03.053Z,97977.25
2022-11-05T16:47:04.316Z,97976.44
2022-11-05T16:49:05.607Z,97973.94
2022-11-05T16:51:06.941Z,97977.31
2022-11-05T16:53:08.238Z,97978.22
2022-11-05T16:55:09.514Z,97976.53
2022-11-05T16:57:10.812Z,97982.47
2022-11-05T16:59:12.284Z,97990.16
2022-11-05T17:01:13.666Z,97991.84
2022-11-05T17:03:18.160Z,97994.34
2022-11-05T17:05:19.430Z,97991.84
2022-11-05T17:07:20.748Z,97991.13
2022-11-05T17:09:22.073Z,97997.13
2022-11-05T17:11:23.399Z,98002.34
2022-11-05T17:13:24.676Z,97999.03
2022-11-05T17:15:25.990Z,97989.78
2022-11-05T17:17:29.012Z,97996.66
2022-11-05T17:19:30.281Z,97997.63
2022-11-05T17:21:31.573Z,97995.16
2022-11-05T17:23:34.248Z,97996.84
2022-11-05T17:25:35.597Z,98000.28
2022-11-05T17:27:36.886Z,98011.34
2022-11-05T17:29:38.148Z,98002.81
2022-11-05T17:31:39.415Z,98004.44
2022-11-05T17:33:40.909Z,98018.00
2022-11-05T17:35:42.233Z,98011.97
2022-11-05T17:37:43.536Z,98013.56
2022-11-05T17:39:44.801Z,98020.31
2022-11-05T17:41:48.956Z,98025.28
2022-11-05T17:43:50.257Z,98031.19
2022-11-05T17:45:52.034Z,98022.66
2022-11-05T17:47:53.829Z,98024.25
2022-11-05T17:49:57.920Z,98024.22
2022-11-05T17:51:59.182Z,98031.91
2022-11-05T17:54:00.820Z,98034.41
2022-11-05T17:56:02.091Z,98040.38
2022-11-05T17:58:03.423Z,98034.41
2022-11-05T18:00:04.750Z,98039.56
2022-11-05T18:02:06.116Z,98037.00
2022-11-05T18:04:09.162Z,98047.31
2022-11-05T18:06:10.643Z,98052.44
2022-11-05T18:08:12.784Z,98051.63
2022-11-05T18:10:14.121Z,98055.91
2022-11-05T18:12:15.391Z,98060.22
2022-11-05T18:14:21.291Z,98058.53
2022-11-05T18:16:25.059Z,98064.53
2022-11-05T18:18:26.358Z,98063.69
2022-11-05T18:20:27.696Z,98066.31
2022-11-05T18:22:29.593Z,98058.63
2022-11-05T18:24:30.876Z,98064.63
2022-11-05T18:26:32.182Z,98067.16
2022-11-05T18:28:33.836Z,98068.03
2022-11-05T18:30:35.121Z,98064.69
2022-11-05T18:32:36.445Z,98071.50
2022-11-05T18:34:37.785Z,98057.91
2022-11-05T18:36:39.109Z,98068.13
2022-11-05T18:38:40.420Z,98063.03
2022-11-05T18:40:41.677Z,98063.03
2022-11-05T18:42:43.161Z,98061.34
2022-11-05T18:44:44.516Z,98061.34
2022-11-05T18:46:59.586Z,98069.78
2022-11-05T18:49:00.899Z,98057.91
2022-11-05T18:51:02.936Z,98066.38
2022-11-05T18:53:04.209Z,98070.56
2022-11-05T18:55:05.479Z,98067.16
2022-11-05T18:57:06.781Z,98069.59
2022-11-05T18:59:35.038Z,98074.63
2022-11-05T19:01:29.383Z,98075.31
2022-11-05T19:03:30.785Z,98082.91
2022-11-05T19:05:32.080Z,98075.94
2022-11-05T19:07:33.431Z,98082.63
2022-11-05T19:09:34.758Z,98085.97
2022-11-05T19:11:36.052Z,98094.50
2022-11-05T19:13:37.409Z,98094.50
2022-11-05T19:15:38.778Z,98093.66
2022-11-05T19:17:40.073Z,98092.09
2022-11-05T19:19:41.389Z,98089.59
2022-11-05T19:21:42.721Z,98090.50
2022-11-05T19:23:44.032Z,98098.31
2022-11-05T19:25:45.305Z,98100.03
2022-11-05T19:27:47.776Z,98106.09
2022-11-05T19:29:49.065Z,98102.75
2022-11-05T19:31:50.400Z,98097.72
2022-11-05T19:33:52.038Z,98099.47
2022-11-05T19:35:53.457Z,98092.72
2022-11-05T19:37:54.841Z,98103.00
2022-11-05T19:39:56.145Z,98099.63
2022-11-05T19:42:02.972Z,98097.13
2022-11-05T19:44:06.057Z,98098.81
2022-11-05T19:46:07.324Z,98102.28
2022-11-05T19:48:08.717Z,98101.44
2022-11-05T19:50:10.148Z,98102.34
2022-11-05T19:52:11.426Z,98093.84
2022-11-05T19:54:12.744Z,98101.50
2022-11-05T19:56:14.222Z,98099.88
2022-11-05T19:58:15.602Z,98104.97
2022-11-05T20:00:17.146Z,98104.97
2022-11-05T20:02:18.533Z,98109.28
2022-11-05T20:04:19.961Z,98106.72
2022-11-05T20:06:21.244Z,98109.28
2022-11-05T20:08:22.554Z,98107.53
2022-11-05T20:10:23.883Z,98114.34
2022-11-05T20:12:25.197Z,98110.03
2022-11-05T20:14:26.545Z,98110.81
2022-11-05T20:16:27.879Z,98104.78
2022-11-05T20:18:30.052Z,98113.19
2022-11-05T20:20:37.235Z,98101.94
2022-11-05T20:22:41.673Z,98106.88
2022-11-05T20:24:45.958Z,98103.31
2022-11-05T20:26:47.299Z,98104.88
2022-11-05T20:28:48.617Z,98109.84
2022-11-05T20:30:49.949Z,98114.88
2022-11-05T20:32:51.254Z,98115.66
2022-11-05T20:34:52.575Z,98117.31
2022-11-05T20:36:53.886Z,98111.41
2022-11-05T20:38:58.253Z,98115.75
2022-11-05T20:40:59.622Z,98109.84
2022-11-05T20:43:03.900Z,98105.66
2022-11-05T20:45:05.197Z,98103.22
2022-11-05T20:47:09.235Z,98110.13
2022-11-05T20:49:10.510Z,98112.75
2022-11-05T20:51:11.832Z,98115.41
2022-11-05T20:53:13.140Z,98112.09
2022-11-05T20:55:17.268Z,98118.16
2022-11-05T20:57:18.600Z,98128.47
2022-11-05T20:59:19.891Z,98131.06
2022-11-05T21:01:24.249Z,98135.38
2022-11-05T21:03:27.251Z,98138.84
2022-11-05T21:05:34.223Z,98141.44
2022-11-05T21:07:36.925Z,98143.19
2022-11-05T21:09:38.252Z,98144.06
2022-11-05T21:11:58.161Z,98146.69
2022-11-05T21:13:59.441Z,98142.50
2022-11-05T21:16:00.793Z,98141.66
2022-11-05T21:18:02.136Z,98148.47
2022-11-05T21:20:06.290Z,98152.78
2022-11-05T21:22:07.674Z,98151.94
2022-11-05T21:24:08.939Z,98134.09
2022-11-05T21:26:10.264Z,98144.34
2022-11-05T21:28:11.997Z,98143.47
2022-11-05T21:30:13.549Z,98146.09
2022-11-05T21:32:15.157Z,98140.13
2022-11-05T21:34:16.452Z,98136.72
2022-11-05T21:36:17.840Z,98129.91
2022-11-05T21:38:28.331Z,98128.19
2022-11-05T21:40:29.651Z,98118.81
2022-11-05T21:42:30.903Z,98115.38
2022-11-05T21:44:32.223Z,98118.66
2022-11-05T21:46:33.556Z,98115.97
2022-11-05T21:48:35.054Z,98113.25
2022-11-05T21:50:54.913Z,98110.50
2022-11-05T21:53:14.953Z,98101.00
2022-11-05T21:55:34.878Z,98109.31
2022-11-05T21:57:54.733Z,98110.06
2022-11-05T21:59:57.533Z,98111.69
2022-11-05T22:02:02.467Z,98110.78
2022-11-05T22:04:04.063Z,98121.84
2022-11-05T22:06:05.425Z,98121.06
2022-11-05T22:08:06.701Z,98104.94
2022-11-05T22:10:10.791Z,98107.63
2022-11-05T22:12:16.155Z,98102.56
2022-11-05T22:14:17.869Z,98107.75
2022-11-05T22:16:19.131Z,98104.47
2022-11-05T22:18:20.466Z,98112.22
2022-11-05T22:20:21.877Z,98114.81
2022-11-05T22:22:23.156Z,98117.50
2022-11-05T22:24:24.465Z,98124.38
2022-11-05T22:26:28.945Z,98127.00
2022-11-05T22:28:30.248Z,98120.25
2022-11-05T22:30:32.268Z,98122.84
2022-11-05T22:32:34.231Z,98123.75
2022-11-05T22:34:35.501Z,98128.03
2022-11-05T22:36:36.980Z,98130.66
2022-11-05T22:38:38.233Z,98130.69
2022-11-05T22:40:39.497Z,98124.75
2022-11-05T22:42:40.899Z,98127.34
2022-11-05T22:44:45.169Z,98123.94
2022-11-05T22:46:46.437Z,98123.16
2022-11-05T22:48:47.748Z,98130.81
2022-11-05T22:50:49.042Z,98129.13
2022-11-05T22:52:50.312Z,98135.94
2022-11-05T22:54:51.945Z,98134.22
2022-11-05T22:56:53.815Z,98135.13
2022-11-05T22:58:55.093Z,98124.00
2022-11-05T23:00:56.568Z,98135.94
2022-11-05T23:02:57.954Z,98122.25
2022-11-05T23:04:59.328Z,98127.34
2022-11-05T23:07:24.622Z,98122.19
2022-11-05T23:09:46.986Z,98118.72
2022-11-05T23:11:48.292Z,98121.16
2022-11-05T23:13:49.552Z,98125.19
2022-11-05T23:16:09.402Z,98129.72
2022-11-05T23:18:29.570Z,98135.38
2022-11-05T23:20:49.516Z,98133.91
2022-11-05T23:23:10.097Z,98130.09
2022-11-05T23:25:11.463Z,98129.06
2022-11-05T23:27:12.737Z,98121.22
2022-11-05T23:29:14.261Z,98006.25
2022-11-05T23:31:34.521Z,98125.22
2022-11-05T23:33:35.885Z,98121.00
2022-11-05T23:35:55.907Z,98115.91
2022-11-05T23:38:15.885Z,98121.00
2022-11-05T23:40:17.435Z,98115.13
2022-11-05T23:42:42.081Z,98115.13
2022-11-05T23:45:15.871Z,98112.69
2022-11-05T23:47:35.929Z,98116.97
2022-11-05T23:49:37.196Z,98114.22
2022-11-05T23:51:38.515Z,98031.91
2022-11-05T23:53:40.136Z,98122.53
2022-11-05T23:55:41.532Z,98119.25
2022-11-05T23:57:42.860Z,98120.94
2022-11-05T23:59:44.185Z,98117.59
